Home Code Reference WordPress Repository Plugins Metar ARFOR WordPress Shortcode Example

ARFOR WordPress Shortcode Example

This page is used to demonstrate the ARFOR feature of the Metar WordPress plugin.

BANKSTOWN YSBK

TAF AMD YSBK 131604Z 1316/1412
VRB03KT 9999 -SHRA FEW010 SCT020
FM132300 07010KT 9999 -SHRA SCT030
FM140900 VRB03KT 9999 -SHRA SCT010 BKN020
INTER 1316/1323 5000 SHRA BKN010
PROB30 TEMPO 1403/1412 VRB25G35KT 3000 TSRA SCT010 FEW025CB
RMK
T 19 20 25 26 Q 1000 1000 1002 1002

SPECI YSBK 132000Z AUTO 00000KT 9999 // SCT010 OVC017 20/19 Q1001
RMK RF00.0/028.8

BATHURST YBTH

TAF YBTH 131758Z 1319/1408
VRB04KT 9999 -SHRA SCT010 BKN025
BECMG 1323/1401 34012KT 9999 -SHRA FEW035
FM140700 03010KT 9999 -SHRA SCT035
PROB30 TEMPO 1319/1408 VRB30G45KT 2000 TSRA BKN005 SCT060CB
RMK
T 16 19 21 24 Q 1002 1004 1004 1003

SPECI YBTH 132005Z AUTO 14004KT //// // SCT015 OVC021 17/17 Q1003
RMK RF00.0/026.2

CAMDEN YSCN

TAF AMD YSCN 131605Z 1316/1412
VRB03KT 9999 -SHRA FEW010 SCT020
FM132300 07010KT 9999 -SHRA SCT030
FM140900 VRB03KT 9999 -SHRA SCT010 BKN020
TEMPO 1316/1323 5000 SHRA BKN010
PROB30 TEMPO 1402/1412 VRB25G35KT 3000 TSRA SCT010 FEW025CB
RMK
T 19 20 24 26 Q 999 1000 1002 1002

SPECI YSCN 132000Z AUTO 00000KT 9999 // OVC009 20/19 Q1002 RMK
RF00.0/034.6

* CANBERRA YSCB

TAF AMD YSCB 131651Z 1316/1418
VRB04KT 9999 -SHRA FEW015 BKN040
FM140000 34010KT 9999 -SHRA BKN045
FM140900 11010KT 9999 -SHRA SCT015 BKN030
INTER 1316/1323 5000 SHRA BKN015
INTER 1323/1412 5000 SHRA BKN020
PROB30 INTER 1316/1401 VRB20G35KT 2000 TSRA BKN015 FEW040CB
PROB30 TEMPO 1401/1418 VRB30G45KT 2000 TSRA BKN010 FEW040CB
RMK
T 18 17 18 21 Q 1002 1002 1004 1004

SPECI YSCB 132000Z AUTO 09007KT 9999 // BKN016 OVC025 OVC038 17/17 Q1003
RMK RF00.0/033.2

COOMA YCOM

TAF AMD YCOM 131910Z 1319/1408
36010KT 9999 -SHRA SCT010 BKN020
BECMG 1400/1402 05014KT 9999 -SHRA BKN025
FM140700 07013KT 9999 -SHRA BKN015
INTER 1319/1321 3000 SHRA BKN010
PROB30 INTER 1321/1324 VRB20G35KT 2000 TSRA BKN005 FEW030CB
PROB30 TEMPO 1400/1408 VRB20G35KT 3000 TSRA BKN015 SCT030CB
RMK
T 13 17 21 22 Q 1004 1005 1005 1005

SPECI YCOM 132000Z AUTO 04005KT 9999 // BKN006 BKN012 OVC019 13/13
Q1004 RMK RF00.0/026.6

COOTAMUNDRA YCTM

Nil current TAF.

METAR/SPECI observations are not generated for this location.

COWRA YCWR

Nil current TAF.

METAR YCWR 132000Z AUTO 08004KT //// // ////// 16/13 Q1003 RMK
RF00.0/021.6

FORBES YFBS

Nil current TAF.

METAR YFBS 132000Z AUTO 00000KT //// // ////// 15/12 Q1002 RMK
RF00.0/026.0

GOULBURN YGLB

TAF COR YGLB 131759Z 1319/1408
35005KT 9999 -SHRA BKN008
FM140000 35010KT 9999 -SHRA SCT020 BKN030
BECMG 1407/1408 10012KT 9999 -SHRA BKN015
PROB30 TEMPO 1400/1408 VRB30G45KT 2000 TSRA BKN010 SCT030CB
RMK
T 16 17 20 22 Q 1003 1004 1004 1003

SPECI YGLB 132000Z AUTO 05006KT //// // OVC005 16/16 Q1003 RMK
RF00.0/029.4 PRESENT WEATHER SENSOR US

HOLSWORTHY YSHW

TAF AMD YSHW 131605Z 1316/1412
VRB03KT 9999 -SHRA FEW010 SCT020
FM132300 07010KT 9999 -SHRA SCT030
FM140900 VRB03KT 9999 -SHRA SCT010 BKN020
INTER 1316/1323 5000 SHRA BKN010
PROB30 TEMPO 1403/1412 VRB25G35KT 3000 TSRA SCT010 FEW025CB
RMK
T 19 19 24 26 Q 1000 1000 1002 1002

SPECI YSHW 132018Z AUTO 00000KT 4900 // OVC016 20/20 Q1001 RMK
RF00.0/058.0

LORD HOWE ISLAND YLHI

TAF YLHI 131643Z 1318/1418
04014KT 9999 -SHRA FEW020 BKN030
FM141300 06010KT 9999 -SHRA SCT030
INTER 1318/1418 5000 SHRA BKN020
RMK
T 21 22 23 23 Q 1010 1012 1012 1012

METAR YLHI 132000Z AUTO 06013KT 9999 // OVC033 22/19 Q1011
RMK RF00.0/000.0

MALLACOOTA YMCO

Nil current TAF.

METAR YMCO 132000Z AUTO 18002KT //// // ////// 20/19 Q1002 RMK
RF00.0/003.6

MERIMBULA YMER

TAF AMD YMER 131705Z 1319/1408
06007KT 9999 -SHRA SCT015 BKN025
INTER 1319/1324 4000 SHRA BKN010
TEMPO 1400/1408 4000 SHRA BKN010
PROB30 INTER 1404/1408 VRB25G35KT 2000 TSRA SCT010 SCT050CB
RMK
T 19 22 22 22 Q 1001 1003 1003 1003

METAR YMER 132000Z AUTO 00000KT 9999 // NCD 19/18 Q1002 RMK
RF00.0/011.4

MORUYA YMRY

TAF AMD YMRY 131908Z 1319/1408
VRB05KT 9999 -SHRA SCT015 BKN025
FM140000 07010KT 9999 -SHRA SCT015 BKN025
INTER 1319/1408 4000 SHRA BKN010
PROB30 INTER 1404/1408 VRB25G35KT 2000 TSRA SCT010 SCT050CB
RMK
T 18 23 24 23 Q 1002 1002 1003 1002

SPECI YMRY 132003Z AUTO 30004KT 9999 // BKN011 BKN120 19/18 Q1002
RMK RF00.0/013.4

NORFOLK ISLAND YSNF

TAF YSNF 131646Z 1318/1418
03005KT 9999 -SHRA FEW020 SCT030
FM140200 07005KT 9999 FEW020 SCT030
RMK
T 19 21 22 23 Q 1014 1016 1016 1015

METAR YSNF 132000Z AUTO 07007KT 9999 // SCT014 SCT021 22/18 Q1016
RMK RF00.0/000.0

* NOWRA YSNW

YSNW TAF AMD YSNW 131821Z 1318/1406
18005KT 9999 -SHRA SCT015 SCT030
FM132200 06008KT 9999 -SHRA SCT015 BKN025
PROB30 1318/1322 3000 BR BKN004
PROB30 TEMPO 1403/1406 VRB20G35KT 3000 TSRA BKN010 SCT060CB
RMK
T 18 22 25 25 Q 1000 1001 1002 1001

TTF SPECI YSNW 132000Z 00000KT 9999 FEW004 OVC013 19/19 Q1002
RMK RF00.0/032.6
NOSIG

ORANGE YORG

TAF AMD YORG 132003Z 1320/1408
26005KT 9999 -SHRA BKN005
BECMG 1322/1400 34013KT 9999 -SHRA BKN015
BECMG 1400/1402 35014KT CAVOK
INTER 1320/1323 4000 SHRA BKN003
INTER 1323/1402 4000 SHRA BKN010
RMK
T 11 14 18 20 Q 1004 1005 1005 1004

SPECI YORG 132000Z AUTO 24012KT 9999 // BKN008 OVC011 11/10 Q1004
RMK RF00.0/037.6

PARKES YPKS

TAF YPKS 131757Z 1319/1408
34014KT 9999 -SHRA BKN040
FM140000 33012KT 9999 FEW050
RMK
T 15 18 21 25 Q 1002 1003 1003 1002

METAR YPKS 132000Z AUTO 25007KT 9999 // SCT047 SCT067 14/13 Q1003
RMK RF00.0/010.2

RICHMOND (NSW) YSRI

TAF AMD YSRI 131655Z 1317/1418
VRB03KT 9999 SCT008
FM140000 05012KT 9999 -SHRA SCT010 BKN090
FM140900 28005KT 9999 -SHRA SCT010 BKN020
TEMPO 1317/1321 8000 -SHRA BKN010
PROB40 1318/1322 0500 FG BKN003
PROB30 INTER 1402/1412 VRB20G35KT 2000 TSRA SCT010 SCT050CB
RMK FM131700 MOD TURB BLW 5000FT TILL132100
T 19 21 26 27 Q 999 1000 1002 1001

SPECI YSRI 132000Z AUTO 13003KT //// // OVC006 20/20 Q1001 RMK
RF00.0/014.8 PRESENT WEATHER SENSOR US

* SYDNEY YSSY

TAF AMD YSSY 131639Z 1318/1424
17006KT 9999 -SHRA FEW010 SCT020
FM132300 07010KT 9999 -SHRA SCT025
FM140500 04015KT 9999 -SHRA SCT030
FM140900 01010KT 9999 -SHRA SCT010 BKN020
FM142300 05015KT 9999 -SHRA SCT010 BKN020
INTER 1318/1323 5000 SHRA BKN010
TEMPO 1412/1414 5000 SHRA BKN008
PROB30 TEMPO 1404/1412 VRB25G35KT 3000 TSRA SCT010 FEW025CB
RMK
T 21 24 26 27 Q 999 1001 1002 1001

TTF SPECI YSSY 132000Z 17002KT 9999 SCT007 BKN011 21/20 Q1001
RMK RF00.0////./ HZ
FM2030 17005KT 9999 SCT010 SCT020
INTER 2030/2300 5000 SHRA BKN010

TEMORA YTEM

Nil current TAF.

METAR YTEM 132000Z AUTO 29009KT //// // ////// 13/10 Q1003 RMK
RF00.0/002.8

WAGGA WAGGA YSWG

TAF AMD YSWG 131639Z 1318/1406
02005KT 9999 -SHRA FEW015 BKN040
FM132300 02010KT 9999 -SHRA BKN050
RMK
T 15 16 20 23 Q 1000 1002 1003 1002

METAR YSWG 132000Z AUTO 03006KT 9999 // SCT009 SCT024 OVC029 16/13
Q1002 RMK RF00.0/021.2

WOLLONGONG YWOL

TAF AMD YWOL 131704Z 1319/1408
VRB03KT 9999 -SHRA SCT010 BKN020
FM132200 04010KT 9999 -SHRA SCT010 BKN025
INTER 1400/1408 4000 SHRA BKN010
PROB30 INTER 1404/1408 VRB25G35KT 2000 TSRA SCT010 SCT050CB
RMK
T 19 24 25 25 Q 1000 1002 1002 1002

SPECI YWOL 132000Z AUTO 23005KT 9999 // OVC012 20/20 Q1001 RMK
RF00.0/009.8

YOUNG YYNG

TAF YYNG 131757Z 1319/1408
33014KT 9999 -SHRA BKN030
FM140000 01008KT CAVOK
RMK
T 14 17 20 24 Q 1002 1003 1003 1002

METAR YYNG 132000Z AUTO 33005KT 9999 // OVC078 16/14 Q1002 RMK
RF00.0/009.4

* Note: The latest TTF automatically supersedes the TAF for the 3 hr validity of the TTF, unless otherwise specified in the TTF.